createdAt,value
2022-09-10T00:00:19.582Z,56.74
2022-09-10T00:00:54.343Z,56.84
2022-09-10T00:01:29.189Z,56.79
2022-09-10T00:02:04.395Z,56.74
2022-09-10T00:02:36.538Z,56.81
2022-09-10T00:03:08.726Z,56.91
2022-09-10T00:03:46.416Z,56.83
2022-09-10T00:04:18.644Z,56.96
2022-09-10T00:04:56.060Z,56.76
2022-09-10T00:05:28.587Z,57.15
2022-09-10T00:06:04.252Z,57.15
2022-09-10T00:06:39.076Z,56.77
2022-09-10T00:07:11.805Z,57.03
2022-09-10T00:07:44.100Z,57.21
2022-09-10T00:08:18.005Z,56.71
2022-09-10T00:08:52.888Z,57.14
2022-09-10T00:09:25.099Z,56.89
2022-09-10T00:09:57.482Z,57.00
2022-09-10T00:10:32.288Z,57.09
2022-09-10T00:11:06.118Z,56.78
2022-09-10T00:11:41.747Z,57.25
2022-09-10T00:12:16.710Z,56.99
2022-09-10T00:12:49.145Z,57.05
2022-09-10T00:13:22.708Z,57.09
2022-09-10T00:13:55.299Z,57.18
2022-09-10T00:14:30.384Z,57.07
2022-09-10T00:15:04.815Z,56.73
2022-09-10T00:15:39.438Z,56.94
2022-09-10T00:16:13.807Z,56.86
2022-09-10T00:16:49.295Z,56.94
2022-09-10T00:17:21.640Z,56.88
2022-09-10T00:17:54.033Z,56.71
2022-09-10T00:18:26.365Z,57.04
2022-09-10T00:19:02.665Z,56.77
2022-09-10T00:19:35.237Z,56.79
2022-09-10T00:20:11.229Z,56.83
2022-09-10T00:20:43.972Z,57.00
2022-09-10T00:21:20.976Z,56.92
2022-09-10T00:21:53.255Z,56.97
2022-09-10T00:22:26.189Z,56.98
2022-09-10T00:23:02.291Z,57.19
2022-09-10T00:23:35.426Z,57.17
2022-09-10T00:24:10.688Z,56.87
2022-09-10T00:24:42.859Z,56.89
2022-09-10T00:25:15.543Z,57.48
2022-09-10T00:25:52.224Z,57.08
2022-09-10T00:26:26.946Z,56.93
2022-09-10T00:27:02.939Z,57.29
2022-09-10T00:27:36.263Z,56.81
2022-09-10T00:28:09.196Z,56.85
2022-09-10T00:28:42.494Z,57.39
2022-09-10T00:29:18.648Z,57.10
2022-09-10T00:29:51.955Z,57.16
2022-09-10T00:30:24.509Z,57.22
2022-09-10T00:30:56.752Z,56.95
2022-09-10T00:31:33.156Z,57.32
2022-09-10T00:32:05.725Z,57.43
2022-09-10T00:32:38.520Z,57.67
2022-09-10T00:33:10.841Z,57.31
2022-09-10T00:33:45.824Z,57.76
2022-09-10T00:34:17.932Z,57.47
2022-09-10T00:34:50.226Z,57.78
2022-09-10T00:35:27.469Z,57.64
2022-09-10T00:35:59.617Z,57.38
2022-09-10T00:36:36.033Z,57.50
2022-09-10T00:37:10.787Z,57.78
2022-09-10T00:37:43.197Z,57.94
2022-09-10T00:38:18.403Z,57.52
2022-09-10T00:38:54.989Z,57.88
2022-09-10T00:39:27.150Z,57.72
2022-09-10T00:39:59.728Z,57.81
2022-09-10T00:40:34.560Z,57.77
2022-09-10T00:41:08.862Z,57.81
2022-09-10T00:41:43.433Z,57.73
2022-09-10T00:42:19.107Z,58.12
2022-09-10T00:42:51.362Z,58.33
2022-09-10T00:43:23.606Z,58.15
2022-09-10T00:43:59.982Z,58.27
2022-09-10T00:44:57.004Z,58.84
2022-09-10T00:45:31.369Z,58.45
2022-09-10T00:46:06.260Z,58.87
2022-09-10T00:46:43.517Z,58.62
2022-09-10T00:47:18.461Z,59.06
2022-09-10T00:47:56.525Z,58.97
2022-09-10T00:48:31.679Z,59.06
2022-09-10T00:49:12.652Z,59.13
2022-09-10T00:49:51.585Z,59.21
2022-09-10T00:50:29.057Z,59.10
2022-09-10T00:51:04.964Z,59.50
2022-09-10T00:51:40.607Z,59.25
2022-09-10T00:52:13.232Z,59.12
2022-09-10T00:52:47.646Z,59.28
2022-09-10T00:53:27.067Z,59.12
2022-09-10T00:54:00.679Z,59.12
2022-09-10T00:54:36.197Z,59.20
2022-09-10T00:55:12.679Z,59.47
2022-09-10T00:55:50.489Z,59.21
2022-09-10T00:56:22.740Z,59.48
2022-09-10T00:56:59.771Z,59.29
2022-09-10T00:57:32.648Z,59.30
2022-09-10T00:58:07.272Z,59.60
2022-09-10T00:58:43.094Z,59.77
2022-09-10T00:59:20.381Z,59.86
2022-09-10T00:59:56.268Z,60.17
2022-09-10T01:00:31.689Z,60.23
2022-09-10T01:01:04.324Z,59.84
2022-09-10T01:01:38.707Z,59.98
2022-09-10T01:02:15.101Z,59.81
2022-09-10T01:02:48.322Z,60.12
2022-09-10T01:03:25.395Z,60.15
2022-09-10T01:04:01.117Z,60.39
2022-09-10T01:04:33.765Z,60.30
2022-09-10T01:05:09.149Z,59.95
2022-09-10T01:05:46.098Z,59.92
2022-09-10T01:06:20.990Z,60.05
2022-09-10T01:06:54.653Z,60.23
2022-09-10T01:07:29.371Z,60.21
2022-09-10T01:08:04.071Z,60.48
2022-09-10T01:08:36.589Z,60.35
2022-09-10T01:09:10.948Z,60.28
2022-09-10T01:09:44.121Z,59.94
2022-09-10T01:10:22.680Z,60.15
2022-09-10T01:11:13.561Z,60.06
2022-09-10T01:12:11.512Z,60.48
2022-09-10T01:13:11.212Z,60.22
2022-09-10T01:14:03.406Z,60.32
2022-09-10T01:15:02.289Z,60.25
2022-09-10T01:15:46.157Z,60.12
2022-09-10T01:16:25.815Z,60.43
2022-09-10T01:17:05.450Z,59.97
2022-09-10T01:17:54.996Z,60.36
2022-09-10T01:18:40.713Z,60.51
2022-09-10T01:19:35.062Z,60.88
2022-09-10T01:20:45.733Z,60.62
2022-09-10T01:21:27.539Z,60.89
2022-09-10T01:22:12.066Z,60.67
2022-09-10T01:23:04.116Z,61.03
2022-09-10T01:24:12.402Z,61.32
2022-09-10T01:24:54.407Z,60.99
2022-09-10T01:25:43.855Z,60.87
2022-09-10T01:26:31.634Z,61.34
2022-09-10T01:27:32.978Z,61.10
2022-09-10T01:28:08.663Z,61.06
2022-09-10T01:28:48.945Z,61.30
2022-09-10T01:29:32.632Z,61.41
2022-09-10T01:30:12.554Z,61.19
2022-09-10T01:30:52.677Z,61.11
2022-09-10T01:31:34.175Z,60.90
2022-09-10T01:32:12.488Z,61.42
2022-09-10T01:32:59.572Z,60.96
2022-09-10T01:33:43.157Z,61.13
2022-09-10T01:34:22.102Z,61.28
2022-09-10T01:35:04.520Z,60.93
2022-09-10T01:35:40.870Z,60.80
2022-09-10T01:36:17.913Z,61.44
2022-09-10T01:36:56.445Z,61.16
2022-09-10T01:37:31.769Z,61.01
2022-09-10T01:38:08.423Z,61.43
2022-09-10T01:38:42.070Z,61.07
2022-09-10T01:39:18.528Z,61.18
2022-09-10T01:39:53.066Z,61.06
2022-09-10T01:40:32.492Z,60.85
2022-09-10T01:41:09.406Z,61.14
2022-09-10T01:41:45.603Z,61.11
2022-09-10T01:42:20.573Z,61.33
2022-09-10T01:43:00.766Z,61.22
2022-09-10T01:43:33.974Z,61.31
2022-09-10T01:44:10.222Z,61.26
2022-09-10T01:44:50.079Z,61.11
2022-09-10T01:45:25.043Z,61.21
2022-09-10T01:46:15.062Z,61.07
2022-09-10T01:46:57.975Z,61.21
2022-09-10T01:47:51.481Z,61.54
2022-09-10T01:48:45.367Z,61.36
2022-09-10T01:49:32.399Z,61.80
2022-09-10T01:50:24.298Z,61.60
2022-09-10T01:51:09.797Z,61.71
2022-09-10T01:51:54.194Z,61.31
2022-09-10T01:52:37.293Z,61.32
2022-09-10T01:53:33.808Z,61.68
2022-09-10T01:54:25.509Z,61.58
2022-09-10T01:55:15.307Z,61.98
2022-09-10T01:55:57.239Z,62.17
2022-09-10T01:56:37.406Z,62.06
2022-09-10T01:57:21.583Z,61.56
2022-09-10T01:58:04.502Z,61.69
2022-09-10T01:58:48.631Z,61.99
2022-09-10T01:59:36.948Z,61.82
2022-09-10T02:00:15.118Z,61.87
2022-09-10T02:00:54.635Z,62.04
2022-09-10T02:01:33.899Z,61.76
2022-09-10T02:02:17.673Z,61.55
2022-09-10T02:02:57.843Z,62.02
2022-09-10T02:03:36.513Z,61.67
2022-09-10T02:04:14.878Z,61.90
2022-09-10T02:04:50.716Z,61.69
2022-09-10T02:05:23.741Z,62.00
2022-09-10T02:06:00.912Z,62.02
2022-09-10T02:06:42.979Z,61.79
2022-09-10T02:07:19.955Z,61.89
2022-09-10T02:07:56.254Z,61.99
2022-09-10T02:08:37.879Z,62.05
2022-09-10T02:09:13.427Z,61.62
2022-09-10T02:09:46.298Z,61.85
2022-09-10T02:10:22.093Z,61.64
2022-09-10T02:10:56.162Z,62.23
2022-09-10T02:11:47.224Z,62.38
2022-09-10T02:12:26.565Z,62.13
2022-09-10T02:13:22.865Z,62.99
2022-09-10T02:14:14.315Z,62.72
2022-09-10T02:15:14.453Z,62.68
2022-09-10T02:16:03.544Z,62.55
2022-09-10T02:16:47.183Z,62.71
2022-09-10T02:17:23.262Z,62.61
2022-09-10T02:17:56.018Z,62.57
2022-09-10T02:18:28.429Z,62.53
2022-09-10T02:19:05.077Z,62.67
2022-09-10T02:19:37.888Z,62.82
2022-09-10T02:20:13.806Z,62.77
2022-09-10T02:20:49.572Z,62.64
2022-09-10T02:21:23.241Z,62.87
2022-09-10T02:21:58.109Z,62.72
2022-09-10T02:22:36.484Z,62.80
2022-09-10T02:23:10.822Z,62.64
2022-09-10T02:23:49.075Z,62.72
2022-09-10T02:24:21.371Z,63.23
2022-09-10T02:24:53.469Z,62.81
2022-09-10T02:25:34.095Z,63.16
2022-09-10T02:26:09.126Z,63.08
2022-09-10T02:26:44.662Z,63.38
2022-09-10T02:27:19.957Z,63.17
2022-09-10T02:27:52.082Z,62.99
2022-09-10T02:28:28.073Z,63.37
2022-09-10T02:29:02.861Z,63.09
2022-09-10T02:29:35.529Z,63.25
2022-09-10T02:30:08.650Z,63.34
2022-09-10T02:30:44.709Z,63.38
2022-09-10T02:31:18.771Z,63.18
2022-09-10T02:31:51.442Z,63.22
2022-09-10T02:32:26.903Z,62.95
2022-09-10T02:32:59.015Z,63.56
2022-09-10T02:33:31.290Z,63.41
2022-09-10T02:34:03.758Z,63.32
2022-09-10T02:34:40.447Z,63.34
2022-09-10T02:35:12.554Z,63.86
2022-09-10T02:35:45.290Z,63.76
2022-09-10T02:36:20.531Z,64.11
2022-09-10T02:36:53.434Z,63.75
2022-09-10T02:37:25.595Z,63.83
2022-09-10T02:38:00.529Z,63.60
2022-09-10T02:38:32.680Z,63.86
2022-09-10T02:39:05.738Z,63.46
2022-09-10T02:39:40.536Z,63.39
2022-09-10T02:40:14.499Z,63.37
2022-09-10T02:40:49.126Z,63.45
2022-09-10T02:41:26.090Z,63.75
2022-09-10T02:41:59.838Z,63.29
2022-09-10T02:42:33.870Z,63.24
2022-09-10T02:43:09.055Z,63.29
2022-09-10T02:43:46.333Z,63.43
2022-09-10T02:44:18.487Z,63.36
2022-09-10T02:44:53.641Z,63.26
2022-09-10T02:45:26.124Z,63.49
2022-09-10T02:45:59.576Z,63.01
2022-09-10T02:46:34.469Z,63.50
2022-09-10T02:47:06.945Z,63.60
2022-09-10T02:47:41.321Z,63.22
2022-09-10T02:48:16.024Z,63.58
2022-09-10T02:48:48.281Z,63.20
2022-09-10T02:49:21.264Z,63.14
2022-09-10T02:49:56.398Z,63.18
2022-09-10T02:50:28.676Z,63.40
2022-09-10T02:51:02.797Z,63.16
2022-09-10T02:51:38.262Z,63.44
2022-09-10T02:52:12.573Z,63.33
2022-09-10T02:52:46.208Z,63.49
2022-09-10T02:53:21.070Z,63.51
2022-09-10T02:53:56.005Z,63.56
2022-09-10T02:54:28.279Z,63.35
2022-09-10T02:55:03.047Z,63.30
2022-09-10T02:55:35.150Z,63.19
2022-09-10T02:56:07.986Z,63.14
2022-09-10T02:56:44.496Z,63.56
2022-09-10T02:57:16.774Z,63.75
2022-09-10T02:57:49.307Z,63.44
2022-09-10T02:58:21.449Z,63.38
2022-09-10T02:58:58.844Z,63.99
2022-09-10T02:59:32.891Z,63.93
2022-09-10T03:00:05.934Z,63.85
2022-09-10T03:00:40.760Z,63.81
2022-09-10T03:01:14.930Z,63.52
2022-09-10T03:01:48.773Z,64.00
2022-09-10T03:02:23.777Z,64.08
2022-09-10T03:03:00.938Z,63.63
2022-09-10T03:03:35.102Z,63.69
2022-09-10T03:04:09.758Z,63.92
2022-09-10T03:04:42.027Z,64.17
2022-09-10T03:05:14.463Z,63.79
2022-09-10T03:05:47.520Z,64.09
2022-09-10T03:06:22.444Z,64.08
2022-09-10T03:06:55.039Z,64.48
2022-09-10T03:07:27.198Z,63.99
2022-09-10T03:08:02.012Z,64.19
2022-09-10T03:08:35.546Z,64.15
2022-09-10T03:09:08.310Z,64.13
2022-09-10T03:09:43.623Z,64.46
2022-09-10T03:10:16.985Z,64.23
2022-09-10T03:10:49.774Z,64.65
2022-09-10T03:11:27.700Z,64.40
2022-09-10T03:12:00.443Z,64.53
2022-09-10T03:12:33.091Z,64.92
2022-09-10T03:13:08.278Z,64.79
2022-09-10T03:13:40.662Z,64.90
2022-09-10T03:14:20.350Z,64.99
2022-09-10T03:14:55.160Z,64.61
2022-09-10T03:15:28.541Z,64.69
2022-09-10T03:16:02.612Z,64.63
2022-09-10T03:16:37.312Z,64.68
2022-09-10T03:17:11.659Z,64.71
2022-09-10T03:17:43.976Z,64.71
2022-09-10T03:18:19.814Z,64.93
2022-09-10T03:18:52.588Z,64.58
2022-09-10T03:19:24.956Z,64.47
2022-09-10T03:20:00.473Z,64.52
2022-09-10T03:20:32.728Z,64.49
2022-09-10T03:21:09.182Z,64.40
2022-09-10T03:21:47.725Z,64.45
2022-09-10T03:22:19.903Z,64.28
2022-09-10T03:22:52.057Z,64.44
2022-09-10T03:23:28.307Z,64.39
2022-09-10T03:24:00.495Z,64.46
2022-09-10T03:24:35.066Z,64.70
2022-09-10T03:25:10.863Z,64.81
2022-09-10T03:25:45.106Z,64.43
2022-09-10T03:26:20.904Z,64.88
2022-09-10T03:26:55.774Z,64.67
2022-09-10T03:27:28.008Z,64.34
2022-09-10T03:28:00.222Z,64.15
2022-09-10T03:28:37.653Z,64.41
2022-09-10T03:29:10.133Z,64.41
2022-09-10T03:29:49.810Z,64.70
2022-09-10T03:30:22.197Z,64.51
2022-09-10T03:30:54.654Z,64.64
2022-09-10T03:31:30.212Z,64.65
2022-09-10T03:32:03.472Z,64.82
2022-09-10T03:32:35.613Z,64.46
2022-09-10T03:33:11.896Z,64.81
2022-09-10T03:33:46.361Z,64.62
2022-09-10T03:34:19.279Z,64.78
2022-09-10T03:34:54.750Z,64.88
2022-09-10T03:35:26.870Z,64.42
2022-09-10T03:35:59.085Z,64.33
2022-09-10T03:36:36.322Z,64.55
2022-09-10T03:37:10.891Z,64.69
2022-09-10T03:37:43.676Z,64.98
2022-09-10T03:38:18.722Z,65.02
2022-09-10T03:38:51.220Z,64.75
2022-09-10T03:39:23.683Z,64.85
2022-09-10T03:39:59.753Z,64.57
2022-09-10T03:40:32.020Z,64.31
2022-09-10T03:41:04.279Z,64.17
2022-09-10T03:41:38.987Z,64.36
2022-09-10T03:42:11.246Z,64.64
2022-09-10T03:42:43.394Z,64.76
2022-09-10T03:43:19.939Z,65.09
2022-09-10T03:43:52.132Z,65.07
2022-09-10T03:44:25.478Z,64.79
2022-09-10T03:45:02.741Z,65.01
2022-09-10T03:45:35.795Z,65.18
2022-09-10T03:46:08.925Z,65.02
2022-09-10T03:46:48.730Z,65.50
2022-09-10T03:47:23.143Z,65.40
2022-09-10T03:47:55.298Z,65.30
2022-09-10T03:48:29.975Z,65.45
2022-09-10T03:49:02.479Z,65.27
2022-09-10T03:49:35.115Z,64.88
2022-09-10T03:50:12.002Z,65.21
2022-09-10T03:50:44.619Z,65.15
2022-09-10T03:51:16.917Z,64.90
2022-09-10T03:51:52.014Z,65.08
2022-09-10T03:52:24.118Z,64.94
2022-09-10T03:52:57.085Z,64.86
2022-09-10T03:53:32.210Z,64.70
2022-09-10T03:54:06.245Z,65.16
2022-09-10T03:54:39.079Z,65.16
2022-09-10T03:55:13.783Z,65.14
2022-09-10T03:55:48.647Z,64.62
2022-09-10T03:56:22.491Z,64.51
2022-09-10T03:56:57.235Z,65.05
2022-09-10T03:57:29.355Z,64.78
2022-09-10T03:58:01.471Z,65.05
2022-09-10T03:58:36.156Z,64.58
2022-09-10T03:59:09.674Z,64.98
2022-09-10T03:59:41.748Z,64.47
2022-09-10T04:00:21.356Z,64.61
2022-09-10T04:00:54.738Z,64.88
2022-09-10T04:01:27.594Z,64.66
2022-09-10T04:02:03.029Z,64.93
2022-09-10T04:02:35.306Z,65.18
2022-09-10T04:03:07.518Z,65.20
2022-09-10T04:03:42.229Z,64.86
2022-09-10T04:04:15.054Z,64.99
2022-09-10T04:04:47.518Z,64.86
2022-09-10T04:05:23.294Z,65.09
2022-09-10T04:05:55.441Z,64.71
2022-09-10T04:06:28.119Z,64.82
2022-09-10T04:07:03.475Z,65.01
2022-09-10T04:07:37.349Z,64.95
2022-09-10T04:08:10.056Z,65.15
2022-09-10T04:08:45.309Z,64.81
2022-09-10T04:09:20.595Z,64.85
2022-09-10T04:09:52.699Z,64.58
2022-09-10T04:10:27.822Z,64.89
2022-09-10T04:11:02.373Z,64.83
2022-09-10T04:11:35.030Z,65.04
2022-09-10T04:12:10.786Z,65.06
2022-09-10T04:12:43.306Z,64.97
2022-09-10T04:13:15.440Z,64.78
2022-09-10T04:13:51.486Z,64.98
2022-09-10T04:14:23.790Z,65.19
2022-09-10T04:14:55.999Z,65.22
2022-09-10T04:15:33.375Z,65.07
2022-09-10T04:16:07.545Z,65.26
2022-09-10T04:16:40.027Z,65.22
2022-09-10T04:17:18.179Z,65.66
2022-09-10T04:17:51.556Z,65.55
2022-09-10T04:18:26.750Z,65.97
2022-09-10T04:19:01.426Z,66.07
2022-09-10T04:19:35.524Z,66.13
2022-09-10T04:20:09.444Z,65.95
2022-09-10T04:20:42.389Z,66.01
2022-09-10T04:21:18.670Z,65.92
2022-09-10T04:21:53.113Z,65.87
2022-09-10T04:22:25.347Z,65.77
2022-09-10T04:23:00.359Z,65.62
2022-09-10T04:23:33.322Z,65.71
2022-09-10T04:24:10.059Z,65.92
2022-09-10T04:24:44.940Z,66.03
2022-09-10T04:25:17.361Z,65.72
2022-09-10T04:25:49.628Z,66.11
2022-09-10T04:26:25.317Z,66.20
2022-09-10T04:26:57.802Z,65.97
2022-09-10T04:27:31.071Z,65.58
2022-09-10T04:28:06.529Z,65.79
2022-09-10T04:28:39.458Z,66.01
2022-09-10T04:29:12.019Z,65.96
2022-09-10T04:29:47.267Z,66.21
2022-09-10T04:30:20.557Z,66.13
2022-09-10T04:30:55.394Z,66.31
2022-09-10T04:31:29.980Z,65.90
2022-09-10T04:32:09.322Z,66.00
2022-09-10T04:32:42.092Z,66.25
2022-09-10T04:33:15.416Z,66.13
2022-09-10T04:33:50.857Z,66.07
2022-09-10T04:34:26.683Z,66.19
2022-09-10T04:34:59.280Z,66.14
2022-09-10T04:35:34.000Z,65.92
2022-09-10T04:36:09.104Z,65.94
2022-09-10T04:36:44.907Z,65.67
2022-09-10T04:37:21.846Z,65.80
2022-09-10T04:37:54.263Z,65.84
2022-09-10T04:38:27.245Z,65.47
2022-09-10T04:39:02.198Z,65.60
2022-09-10T04:39:36.258Z,65.06
2022-09-10T04:40:10.682Z,65.09
2022-09-10T04:40:47.756Z,65.21
2022-09-10T04:41:20.459Z,64.95
2022-09-10T04:41:53.410Z,64.78
2022-09-10T04:42:26.039Z,65.11
2022-09-10T04:43:01.119Z,65.37
2022-09-10T04:43:33.309Z,65.26
2022-09-10T04:44:06.721Z,65.04
2022-09-10T04:44:42.053Z,65.10
2022-09-10T04:45:14.348Z,65.26
2022-09-10T04:45:46.613Z,65.54
2022-09-10T04:46:23.874Z,65.02
2022-09-10T04:46:57.894Z,65.55
2022-09-10T04:47:30.475Z,65.33
2022-09-10T04:48:07.250Z,65.02
2022-09-10T04:48:40.134Z,65.25
2022-09-10T04:49:12.915Z,65.43
2022-09-10T04:49:47.658Z,65.27
2022-09-10T04:50:21.997Z,65.33
2022-09-10T04:51:19.109Z,65.58
2022-09-10T04:51:56.804Z,65.68
2022-09-10T04:52:30.729Z,65.63
2022-09-10T04:53:05.784Z,65.87
2022-09-10T04:53:37.908Z,65.52
2022-09-10T04:54:13.635Z,65.86
2022-09-10T04:54:49.022Z,65.33
2022-09-10T04:55:21.304Z,65.45
2022-09-10T04:55:54.874Z,66.01
2022-09-10T04:56:29.616Z,65.71
2022-09-10T04:57:01.708Z,65.88
2022-09-10T04:57:34.403Z,66.11
2022-09-10T04:58:06.555Z,65.68
2022-09-10T04:58:41.995Z,66.11
2022-09-10T04:59:14.395Z,65.83
2022-09-10T04:59:48.598Z,65.99
2022-09-10T05:00:23.533Z,65.64
2022-09-10T05:00:57.144Z,65.71
2022-09-10T05:01:32.150Z,66.04
2022-09-10T05:02:09.355Z,65.67
2022-09-10T05:02:43.331Z,65.82
2022-09-10T05:03:18.249Z,65.88
2022-09-10T05:03:50.674Z,65.98
2022-09-10T05:04:24.140Z,66.18
2022-09-10T05:04:59.741Z,65.75
2022-09-10T05:05:33.514Z,65.98
2022-09-10T05:06:07.137Z,66.06
2022-09-10T05:06:42.521Z,66.00
2022-09-10T05:07:15.505Z,65.84
2022-09-10T05:07:49.235Z,66.23
2022-09-10T05:08:23.989Z,65.97
2022-09-10T05:09:01.242Z,66.04
2022-09-10T05:09:33.925Z,66.25
2022-09-10T05:10:11.989Z,66.32
2022-09-10T05:10:45.896Z,66.82
2022-09-10T05:11:21.386Z,66.87
2022-09-10T05:11:53.477Z,66.84
2022-09-10T05:12:26.597Z,67.27
2022-09-10T05:13:01.311Z,67.37
2022-09-10T05:13:34.031Z,67.06
2022-09-10T05:14:07.718Z,67.19
2022-09-10T05:14:42.491Z,66.92
2022-09-10T05:15:14.890Z,67.06
2022-09-10T05:15:47.024Z,67.46
2022-09-10T05:16:23.763Z,66.99
2022-09-10T05:16:58.525Z,67.40
2022-09-10T05:17:33.645Z,67.32
2022-09-10T05:18:08.707Z,67.09
2022-09-10T05:18:42.803Z,67.47
2022-09-10T05:19:18.052Z,67.87
2022-09-10T05:19:58.283Z,67.33
2022-09-10T05:20:31.313Z,67.53
2022-09-10T05:21:05.404Z,67.73
2022-09-10T05:21:41.368Z,67.71
2022-09-10T05:22:13.461Z,68.12
2022-09-10T05:22:45.585Z,67.67
2022-09-10T05:23:20.491Z,67.64
2022-09-10T05:23:52.647Z,67.82
2022-09-10T05:24:24.828Z,67.89
2022-09-10T05:24:59.827Z,68.11
2022-09-10T05:25:31.996Z,68.19
2022-09-10T05:26:04.914Z,68.06
2022-09-10T05:26:40.423Z,68.15
2022-09-10T05:27:14.304Z,68.25
2022-09-10T05:27:46.652Z,68.25
2022-09-10T05:28:26.192Z,68.04
2022-09-10T05:28:59.871Z,68.15
2022-09-10T05:29:32.297Z,68.36
2022-09-10T05:30:08.811Z,68.08
2022-09-10T05:30:41.714Z,67.89
2022-09-10T05:31:14.240Z,68.20
2022-09-10T05:31:51.076Z,68.02
2022-09-10T05:32:26.164Z,67.80
2022-09-10T05:32:58.975Z,68.14
2022-09-10T05:33:34.975Z,68.41
2022-09-10T05:34:08.573Z,68.23
2022-09-10T05:34:42.030Z,68.20
2022-09-10T05:35:17.130Z,68.50
2022-09-10T05:35:51.982Z,68.45
2022-09-10T05:36:25.418Z,68.37
2022-09-10T05:37:00.159Z,68.48
2022-09-10T05:37:32.577Z,68.04
2022-09-10T05:38:04.720Z,68.48
2022-09-10T05:38:45.721Z,68.52
2022-09-10T05:39:18.244Z,68.43
2022-09-10T05:39:52.192Z,68.35
2022-09-10T05:40:29.319Z,68.19
2022-09-10T05:41:01.865Z,68.05
2022-09-10T05:41:34.162Z,68.03
2022-09-10T05:42:09.470Z,67.86
2022-09-10T05:42:43.214Z,67.99
2022-09-10T05:43:15.745Z,67.84
2022-09-10T05:43:52.416Z,67.76
2022-09-10T05:44:24.499Z,67.76
2022-09-10T05:44:59.842Z,67.79
2022-09-10T05:45:33.605Z,67.47
2022-09-10T05:46:06.251Z,67.71
2022-09-10T05:46:41.133Z,67.51
2022-09-10T05:47:16.411Z,67.24
2022-09-10T05:47:53.105Z,67.26
2022-09-10T05:48:31.287Z,67.51
2022-09-10T05:49:03.464Z,67.68
2022-09-10T05:49:38.270Z,67.80
2022-09-10T05:50:11.458Z,67.84
2022-09-10T05:50:45.634Z,67.84
2022-09-10T05:51:20.888Z,67.63
2022-09-10T05:51:55.048Z,67.72
2022-09-10T05:52:27.764Z,67.61
2022-09-10T05:53:07.011Z,67.73
2022-09-10T05:53:39.152Z,67.60
2022-09-10T05:54:14.614Z,67.56
2022-09-10T05:55:17.431Z,67.67
2022-09-10T05:55:50.024Z,67.72
2022-09-10T05:56:23.742Z,67.96
2022-09-10T05:56:56.649Z,67.95
2022-09-10T05:57:31.439Z,67.40
2022-09-10T05:58:03.601Z,67.96
2022-09-10T05:58:35.916Z,67.76
2022-09-10T05:59:11.543Z,67.87
2022-09-10T05:59:46.303Z,67.84
2022-09-10T06:00:18.855Z,68.14
2022-09-10T06:01:01.919Z,67.85
2022-09-10T06:01:35.315Z,68.11
2022-09-10T06:02:23.206Z,67.78
2022-09-10T06:02:57.364Z,68.10
2022-09-10T06:03:38.119Z,68.16
2022-09-10T06:04:13.740Z,68.38
2022-09-10T06:04:46.033Z,68.28
2022-09-10T06:05:21.344Z,68.24
2022-09-10T06:05:56.648Z,68.53
2022-09-10T06:06:33.726Z,68.46
2022-09-10T06:07:13.872Z,68.56
2022-09-10T06:07:48.039Z,68.44
2022-09-10T06:08:21.237Z,68.65
2022-09-10T06:08:58.068Z,68.46
2022-09-10T06:09:51.841Z,68.37
2022-09-10T06:10:38.705Z,68.07
2022-09-10T06:11:14.365Z,68.01
2022-09-10T06:11:50.456Z,67.85
2022-09-10T06:12:23.902Z,67.70
2022-09-10T06:12:58.867Z,67.80
2022-09-10T06:13:32.183Z,67.70
2022-09-10T06:14:04.271Z,67.46
2022-09-10T06:14:36.443Z,67.78
2022-09-10T06:15:12.305Z,67.53
2022-09-10T06:15:44.507Z,67.61
2022-09-10T06:16:20.096Z,67.88
2022-09-10T06:16:53.219Z,67.54
2022-09-10T06:17:26.820Z,67.51
2022-09-10T06:18:02.267Z,67.96
2022-09-10T06:18:35.388Z,68.01
2022-09-10T06:19:09.031Z,67.80
2022-09-10T06:19:44.942Z,67.52
2022-09-10T06:20:17.236Z,67.99
2022-09-10T06:21:01.270Z,67.71
2022-09-10T06:21:36.254Z,67.51
2022-09-10T06:22:11.297Z,67.83
2022-09-10T06:22:46.047Z,67.81
2022-09-10T06:23:21.128Z,67.59
2022-09-10T06:23:55.567Z,67.24
2022-09-10T06:24:32.095Z,67.34
2022-09-10T06:25:06.628Z,67.49
2022-09-10T06:25:44.676Z,67.21
2022-09-10T06:26:18.654Z,67.42
2022-09-10T06:26:55.300Z,67.85
2022-09-10T06:27:30.003Z,67.44
2022-09-10T06:28:03.062Z,67.60
2022-09-10T06:28:38.368Z,67.27
2022-09-10T06:29:12.604Z,67.85
2022-09-10T06:29:47.730Z,67.55
2022-09-10T06:30:23.202Z,67.49
2022-09-10T06:30:55.942Z,67.58
2022-09-10T06:31:28.268Z,67.52
2022-09-10T06:32:03.931Z,67.80
2022-09-10T06:32:36.401Z,67.68
2022-09-10T06:33:08.918Z,67.68
2022-09-10T06:33:43.803Z,68.24
2022-09-10T06:34:19.181Z,67.80
2022-09-10T06:34:52.058Z,67.85
2022-09-10T06:35:29.541Z,67.81
2022-09-10T06:36:03.752Z,67.65
2022-09-10T06:36:36.175Z,68.07
2022-09-10T06:37:12.183Z,67.86
2022-09-10T06:37:45.449Z,67.95
2022-09-10T06:38:19.340Z,67.83
2022-09-10T06:38:55.917Z,67.62
2022-09-10T06:39:29.101Z,67.57
2022-09-10T06:40:05.702Z,67.93
2022-09-10T06:40:54.805Z,67.64
2022-09-10T06:41:27.324Z,68.08
2022-09-10T06:42:06.655Z,68.04
2022-09-10T06:43:10.521Z,67.74
2022-09-10T06:44:02.951Z,68.00
2022-09-10T06:44:44.144Z,68.15
2022-09-10T06:45:42.544Z,68.18
2022-09-10T06:47:39.055Z,68.10
2022-09-10T06:48:38.709Z,68.71
2022-09-10T06:49:15.563Z,68.43
2022-09-10T06:49:55.606Z,68.60
2022-09-10T06:50:28.760Z,68.57
2022-09-10T06:51:04.298Z,68.87
2022-09-10T06:51:42.506Z,68.81
2022-09-10T06:52:15.772Z,69.02
2022-09-10T06:52:50.618Z,69.10
2022-09-10T06:53:33.410Z,69.16
2022-09-10T06:54:07.959Z,69.26
2022-09-10T06:54:42.858Z,68.87
2022-09-10T06:55:31.026Z,68.64
2022-09-10T06:56:10.153Z,68.58
2022-09-10T06:56:43.071Z,68.46
2022-09-10T06:57:18.003Z,68.75
2022-09-10T06:57:50.527Z,68.31
2022-09-10T06:58:24.652Z,68.25
2022-09-10T06:59:02.428Z,67.93
2022-09-10T06:59:41.325Z,67.76
2022-09-10T07:00:14.962Z,67.55
2022-09-10T07:00:54.404Z,67.36
2022-09-10T07:01:27.697Z,67.50
2022-09-10T07:02:03.052Z,67.70
2022-09-10T07:02:37.804Z,67.55
2022-09-10T07:03:11.161Z,67.21
2022-09-10T07:03:45.752Z,66.99
2022-09-10T07:04:21.566Z,66.99
2022-09-10T07:04:54.170Z,67.02
2022-09-10T07:05:27.863Z,66.78
2022-09-10T07:06:05.977Z,66.66
2022-09-10T07:06:39.039Z,66.63
2022-09-10T07:07:17.909Z,66.72
2022-09-10T07:07:50.654Z,66.55
2022-09-10T07:08:23.165Z,66.06
2022-09-10T07:09:02.045Z,66.47
2022-09-10T07:09:38.434Z,66.23
2022-09-10T07:10:12.533Z,65.71
2022-09-10T07:10:48.459Z,65.92
2022-09-10T07:11:24.891Z,66.05
2022-09-10T07:11:58.012Z,66.08
2022-09-10T07:12:33.270Z,65.90
2022-09-10T07:13:08.085Z,65.97
2022-09-10T07:13:40.870Z,65.91
2022-09-10T07:14:16.371Z,65.81
2022-09-10T07:14:48.666Z,65.97
2022-09-10T07:15:21.210Z,65.61
2022-09-10T07:15:56.360Z,65.91
2022-09-10T07:16:29.242Z,65.38
2022-09-10T07:17:03.978Z,65.21
2022-09-10T07:17:37.875Z,65.64
2022-09-10T07:18:14.271Z,65.47
2022-09-10T07:18:51.587Z,65.18
2022-09-10T07:19:26.097Z,65.59
2022-09-10T07:20:00.777Z,65.61
2022-09-10T07:20:43.917Z,65.17
2022-09-10T07:21:16.874Z,65.49
2022-09-10T07:21:53.916Z,65.51
2022-09-10T07:22:26.763Z,65.42
2022-09-10T07:22:59.736Z,65.23
2022-09-10T07:23:39.185Z,65.17
2022-09-10T07:24:12.732Z,65.46
2022-09-10T07:24:51.622Z,65.15
2022-09-10T07:25:34.459Z,65.25
2022-09-10T07:26:17.439Z,64.93
2022-09-10T07:26:57.100Z,65.27
2022-09-10T07:27:29.565Z,65.07
2022-09-10T07:28:06.675Z,64.88
2022-09-10T07:28:42.993Z,65.23
2022-09-10T07:29:18.432Z,64.89
2022-09-10T07:29:50.684Z,64.95
2022-09-10T07:30:24.871Z,64.81
2022-09-10T07:31:00.604Z,64.52
2022-09-10T07:31:34.374Z,64.94
2022-09-10T07:32:13.599Z,65.00
2022-09-10T07:32:50.184Z,64.92
2022-09-10T07:33:26.148Z,64.92
2022-09-10T07:34:01.177Z,64.99
2022-09-10T07:34:33.328Z,64.61
2022-09-10T07:35:07.980Z,65.00
2022-09-10T07:35:43.172Z,64.87
2022-09-10T07:36:16.937Z,64.70
2022-09-10T07:36:54.904Z,64.64
2022-09-10T07:37:27.028Z,64.56
2022-09-10T07:38:00.260Z,64.53
2022-09-10T07:38:35.992Z,64.49
2022-09-10T07:39:10.203Z,64.63
2022-09-10T07:39:44.428Z,64.56
2022-09-10T07:40:19.988Z,64.16
2022-09-10T07:40:52.911Z,64.38
2022-09-10T07:41:30.113Z,64.46
2022-09-10T07:42:08.743Z,64.03
2022-09-10T07:42:43.915Z,64.14
2022-09-10T07:43:18.943Z,64.30
2022-09-10T07:43:54.075Z,63.88